createdAt,value
2024-04-11T00:03:25.309Z,8.83
2024-04-11T00:07:33.409Z,8.73
2024-04-11T00:11:41.108Z,8.65
2024-04-11T00:15:51.802Z,8.61
2024-04-11T00:19:59.236Z,8.59
2024-04-11T00:24:10.013Z,8.54
2024-04-11T00:28:17.349Z,8.51
2024-04-11T00:32:26.284Z,8.47
2024-04-11T00:36:34.236Z,8.41
2024-04-11T00:40:41.903Z,8.33
2024-04-11T00:44:49.408Z,8.29
2024-04-11T00:48:57.715Z,8.29
2024-04-11T00:53:06.102Z,8.27
2024-04-11T00:57:16.837Z,8.28
2024-04-11T01:01:26.731Z,8.28
2024-04-11T01:05:35.922Z,8.23
2024-04-11T01:09:46.530Z,8.14
2024-04-11T01:13:54.607Z,8.05
2024-04-11T01:18:03.841Z,7.91
2024-04-11T01:22:12.504Z,7.83
2024-04-11T01:26:20.136Z,7.82
2024-04-11T01:30:29.388Z,7.82
2024-04-11T01:34:36.901Z,7.76
2024-04-11T01:38:46.626Z,7.70
2024-04-11T01:42:55.392Z,7.60
2024-04-11T01:47:02.980Z,7.49
2024-04-11T01:51:11.486Z,7.44
2024-04-11T01:55:19.072Z,7.44
2024-04-11T01:59:27.430Z,7.44
2024-04-11T02:03:35.557Z,7.43
2024-04-11T02:07:44.021Z,7.44
2024-04-11T02:11:55.118Z,7.37
2024-04-11T02:16:06.622Z,7.33
2024-04-11T02:20:14.496Z,7.28
2024-04-11T02:24:23.667Z,7.22
2024-04-11T02:28:31.131Z,7.20
2024-04-11T02:32:42.868Z,7.16
2024-04-11T02:36:50.405Z,7.15
2024-04-11T02:40:59.284Z,7.09
2024-04-11T02:45:16.233Z,6.99
2024-04-11T02:49:24.500Z,6.88
2024-04-11T02:53:33.688Z,6.82
2024-04-11T02:57:40.919Z,6.78
2024-04-11T03:01:52.420Z,6.79
2024-04-11T03:06:08.669Z,6.81
2024-04-11T03:10:16.803Z,6.84
2024-04-11T03:14:24.652Z,6.87
2024-04-11T03:18:36.093Z,6.85
2024-04-11T03:22:47.963Z,6.78
2024-04-11T03:26:55.662Z,6.68
2024-04-11T03:31:06.128Z,6.65
2024-04-11T03:35:13.440Z,6.64
2024-04-11T03:39:21.449Z,6.67
2024-04-11T03:43:29.560Z,6.65
2024-04-11T03:47:40.274Z,6.61
2024-04-11T03:51:51.350Z,6.56
2024-04-11T03:55:59.478Z,6.49
2024-04-11T04:00:08.969Z,6.42
2024-04-11T04:04:19.152Z,6.33
2024-04-11T04:08:26.536Z,6.28
2024-04-11T04:12:34.545Z,6.29
2024-04-11T04:16:43.293Z,6.30
2024-04-11T04:20:59.411Z,6.29
2024-04-11T04:25:12.951Z,6.26
2024-04-11T04:29:20.613Z,6.16
2024-04-11T04:33:28.936Z,6.11
2024-04-11T04:37:36.794Z,6.09
2024-04-11T04:41:44.933Z,6.17
2024-04-11T04:45:53.827Z,6.25
2024-04-11T04:50:01.727Z,6.28
2024-04-11T04:54:13.289Z,6.32
2024-04-11T04:58:21.999Z,6.35
2024-04-11T05:02:30.190Z,6.35
2024-04-11T05:06:38.898Z,6.41
2024-04-11T05:10:55.575Z,6.49
2024-04-11T05:15:13.607Z,6.65
2024-04-11T05:19:22.018Z,6.84
2024-04-11T05:23:34.196Z,6.99
2024-04-11T05:27:42.648Z,7.12
2024-04-11T05:31:50.416Z,7.25
2024-04-11T05:35:59.958Z,7.42
2024-04-11T05:40:09.106Z,7.63
2024-04-11T05:44:17.198Z,7.90
2024-04-11T05:48:25.343Z,8.17
2024-04-11T05:52:32.996Z,8.42
2024-04-11T05:56:40.313Z,8.57
2024-04-11T06:00:50.928Z,8.75
2024-04-11T06:04:58.016Z,8.98
2024-04-11T06:09:09.594Z,9.27
2024-04-11T06:13:20.514Z,9.55
2024-04-11T06:17:28.837Z,9.75
2024-04-11T06:21:46.447Z,9.90
2024-04-11T06:25:53.904Z,10.07
2024-04-11T06:30:04.208Z,10.24
2024-04-11T06:34:12.934Z,10.38
2024-04-11T06:38:22.259Z,10.54
2024-04-11T06:42:30.914Z,10.81
2024-04-11T06:46:41.372Z,11.10
2024-04-11T06:50:49.354Z,11.40
2024-04-11T06:54:57.388Z,11.68
2024-04-11T06:59:07.059Z,11.90
2024-04-11T07:03:18.224Z,12.11
2024-04-11T07:07:28.405Z,12.32
2024-04-11T07:11:41.425Z,12.46
2024-04-11T07:15:51.285Z,12.55
2024-04-11T07:19:59.672Z,12.64
2024-04-11T07:24:09.258Z,12.78
2024-04-11T07:28:17.327Z,12.93
2024-04-11T07:32:25.705Z,13.10
2024-04-11T07:36:34.293Z,13.27
2024-04-11T07:40:55.749Z,13.39
2024-04-11T07:45:07.479Z,13.50
2024-04-11T07:49:15.586Z,13.61
2024-04-11T07:53:27.578Z,13.70
2024-04-11T07:57:34.952Z,13.80
2024-04-11T08:01:42.904Z,13.85
2024-04-11T08:05:50.871Z,13.95
2024-04-11T08:09:59.936Z,14.03
2024-04-11T08:14:08.295Z,14.04
2024-04-11T08:18:16.730Z,14.07
2024-04-11T08:22:26.142Z,14.19
2024-04-11T08:26:34.821Z,14.32
2024-04-11T08:30:42.432Z,14.42
2024-04-11T08:34:50.550Z,14.56
2024-04-11T08:38:59.832Z,14.69
2024-04-11T08:43:11.745Z,14.81
2024-04-11T08:47:19.392Z,14.89
2024-04-11T08:51:27.090Z,14.97
2024-04-11T08:55:36.673Z,14.99
2024-04-11T08:59:47.438Z,15.05
2024-04-11T09:03:55.312Z,15.07
2024-04-11T09:08:02.707Z,15.16
2024-04-11T09:12:16.225Z,15.29
2024-04-11T09:16:29.050Z,15.42
2024-04-11T09:20:37.300Z,15.57
2024-04-11T09:24:46.621Z,15.72
2024-04-11T09:28:55.245Z,15.82
2024-04-11T09:33:08.500Z,15.94
2024-04-11T09:37:18.637Z,15.92
2024-04-11T09:41:27.707Z,15.93
2024-04-11T09:45:38.285Z,16.09
2024-04-11T09:49:55.465Z,16.26
2024-04-11T09:54:05.763Z,16.38
2024-04-11T09:58:15.104Z,16.32
2024-04-11T10:02:26.426Z,16.41
2024-04-11T10:06:36.940Z,16.51
2024-04-11T10:10:44.329Z,16.62
2024-04-11T10:15:00.873Z,16.49
2024-04-11T10:19:14.261Z,16.18
2024-04-11T10:23:31.361Z,16.15
2024-04-11T10:27:39.477Z,16.31
2024-04-11T10:31:49.040Z,16.37
2024-04-11T10:35:58.326Z,16.40
2024-04-11T10:40:11.702Z,16.37
2024-04-11T10:44:19.172Z,16.43
2024-04-11T10:48:27.136Z,16.54
2024-04-11T10:52:35.241Z,16.53
2024-04-11T10:56:45.298Z,16.45
2024-04-11T11:01:13.476Z,16.51
2024-04-11T11:05:21.361Z,16.54
2024-04-11T11:09:30.604Z,16.61
2024-04-11T11:13:38.032Z,16.73
2024-04-11T11:17:46.745Z,16.81
2024-04-11T11:22:00.820Z,16.87
2024-04-11T11:26:12.978Z,16.97
2024-04-11T11:30:20.185Z,16.97
2024-04-11T11:34:31.587Z,17.11
2024-04-11T11:38:39.673Z,17.23
2024-04-11T11:42:47.843Z,17.34
2024-04-11T11:47:07.356Z,17.44
2024-04-11T11:51:14.672Z,17.49
2024-04-11T11:55:28.074Z,17.42
2024-04-11T11:59:36.226Z,17.52
2024-04-11T12:03:45.720Z,17.65
2024-04-11T12:07:55.627Z,17.78
2024-04-11T12:12:23.142Z,17.78
2024-04-11T12:16:40.887Z,17.79
2024-04-11T12:20:48.980Z,17.95
2024-04-11T12:24:59.640Z,18.13
2024-04-11T12:29:07.215Z,18.09
2024-04-11T12:33:17.888Z,18.15
2024-04-11T12:37:26.805Z,18.34
2024-04-11T12:41:34.239Z,18.53
2024-04-11T12:45:41.421Z,18.66
2024-04-11T12:49:49.874Z,18.72
2024-04-11T12:53:57.160Z,18.89
2024-04-11T12:58:08.134Z,19.11
2024-04-11T13:02:20.648Z,19.15
2024-04-11T13:06:38.502Z,19.19
2024-04-11T13:10:50.305Z,19.11
2024-04-11T13:15:10.117Z,18.92
2024-04-11T13:19:20.598Z,18.95
2024-04-11T13:23:30.693Z,19.09
2024-04-11T13:27:40.327Z,19.23
2024-04-11T13:31:50.716Z,19.34
2024-04-11T13:36:05.502Z,19.26
2024-04-11T13:40:45.906Z,19.25
2024-04-11T13:44:55.250Z,19.37
2024-04-11T13:49:21.651Z,19.31
2024-04-11T13:53:33.748Z,19.30
2024-04-11T13:57:42.483Z,19.25
2024-04-11T14:01:52.665Z,19.30
2024-04-11T14:06:23.945Z,19.42
2024-04-11T14:10:34.392Z,19.59
2024-04-11T14:14:41.599Z,19.80
2024-04-11T14:18:50.107Z,19.91
2024-04-11T14:23:16.784Z,19.97
2024-04-11T14:27:30.651Z,20.02
2024-04-11T14:31:40.485Z,20.03
2024-04-11T14:36:07.789Z,19.79
2024-04-11T14:40:15.702Z,19.54
2024-04-11T14:44:23.358Z,19.48
2024-04-11T14:48:38.068Z,19.62
2024-04-11T14:52:46.349Z,19.78
2024-04-11T14:56:56.659Z,19.87
2024-04-11T15:01:16.263Z,19.85
2024-04-11T15:05:23.654Z,19.94
2024-04-11T15:09:35.884Z,19.79
2024-04-11T15:13:45.691Z,19.67
2024-04-11T15:17:59.651Z,19.75
2024-04-11T15:22:07.797Z,19.81
2024-04-11T15:26:18.137Z,19.77
2024-04-11T15:30:47.153Z,19.65
2024-04-11T15:34:55.213Z,19.58
2024-04-11T15:39:02.579Z,19.63
2024-04-11T15:43:23.279Z,19.73
2024-04-11T15:47:34.996Z,19.69
2024-04-11T15:51:48.593Z,19.71
2024-04-11T15:55:56.211Z,19.71
2024-04-11T16:00:12.477Z,19.68
2024-04-11T16:04:24.956Z,19.66
2024-04-11T16:08:36.519Z,19.62
2024-04-11T16:12:44.622Z,19.44
2024-04-11T16:16:56.746Z,19.32
2024-04-11T16:21:04.645Z,19.27
2024-04-11T16:25:20.965Z,19.23
2024-04-11T16:29:31.520Z,19.14
2024-04-11T16:33:43.153Z,19.09
2024-04-11T16:38:09.131Z,19.01
2024-04-11T16:42:24.156Z,18.90
2024-04-11T16:46:38.648Z,18.75
2024-04-11T16:50:50.218Z,18.72
2024-04-11T16:55:03.183Z,18.63
2024-04-11T16:59:10.749Z,18.50
2024-04-11T17:03:21.722Z,18.42
2024-04-11T17:07:37.966Z,18.30
2024-04-11T17:11:46.986Z,18.15
2024-04-11T17:16:16.878Z,18.01
2024-04-11T17:20:44.056Z,17.88
2024-04-11T17:24:53.582Z,17.78
2024-04-11T17:29:05.203Z,17.68
2024-04-11T17:33:21.326Z,17.59
2024-04-11T17:37:41.046Z,17.50
2024-04-11T17:41:59.855Z,17.39
2024-04-11T17:46:08.565Z,17.30
2024-04-11T17:50:15.610Z,17.20
2024-04-11T17:54:23.628Z,17.10
2024-04-11T17:58:32.594Z,17.01
2024-04-11T18:02:47.811Z,16.87
2024-04-11T18:06:55.991Z,16.65
2024-04-11T18:11:08.678Z,16.46
2024-04-11T18:15:19.119Z,16.31
2024-04-11T18:19:30.262Z,16.17
2024-04-11T18:23:38.156Z,16.01
2024-04-11T18:27:47.476Z,15.85
2024-04-11T18:31:54.734Z,15.67
2024-04-11T18:36:15.850Z,15.52
2024-04-11T18:40:38.024Z,15.36
2024-04-11T18:44:51.943Z,15.22
2024-04-11T18:49:18.765Z,15.08
2024-04-11T18:53:26.898Z,14.97
2024-04-11T18:57:36.410Z,14.87
2024-04-11T19:01:47.757Z,14.78
2024-04-11T19:05:59.326Z,14.71
2024-04-11T19:10:15.630Z,14.62
2024-04-11T19:14:26.197Z,14.50
2024-04-11T19:18:35.876Z,14.34
2024-04-11T19:22:47.242Z,14.16
2024-04-11T19:26:55.090Z,14.00
2024-04-11T19:31:03.744Z,13.85
2024-04-11T19:35:12.026Z,13.72
2024-04-11T19:39:20.872Z,13.56
2024-04-11T19:43:32.305Z,13.40
2024-04-11T19:47:44.704Z,13.25
2024-04-11T19:51:58.579Z,13.12
2024-04-11T19:56:19.355Z,13.02
2024-04-11T20:00:45.534Z,12.93
2024-04-11T20:05:01.221Z,12.90
2024-04-11T20:09:14.415Z,12.92
2024-04-11T20:13:35.855Z,12.89
2024-04-11T20:17:48.273Z,12.80
2024-04-11T20:21:56.062Z,12.71
2024-04-11T20:26:11.973Z,12.64
2024-04-11T20:30:21.572Z,12.55
2024-04-11T20:34:30.401Z,12.44
2024-04-11T20:38:38.111Z,12.32
2024-04-11T20:43:02.994Z,12.20
2024-04-11T20:47:28.355Z,12.10
2024-04-11T20:51:53.953Z,12.01
2024-04-11T20:56:19.490Z,11.93
2024-04-11T21:00:46.268Z,11.85
2024-04-11T21:05:11.115Z,11.80
2024-04-11T21:09:36.358Z,11.78
2024-04-11T21:14:01.197Z,11.78
2024-04-11T21:18:27.424Z,11.76
2024-04-11T21:22:53.820Z,11.74
2024-04-11T21:27:19.145Z,11.72
2024-04-11T21:31:44.774Z,11.70
2024-04-11T21:35:55.222Z,11.65
2024-04-11T21:40:14.643Z,11.61
2024-04-11T21:44:27.760Z,11.57
2024-04-11T21:48:41.790Z,11.53
2024-04-11T21:52:54.321Z,11.55
2024-04-11T21:57:06.008Z,11.62
2024-04-11T22:01:18.469Z,11.69
2024-04-11T22:05:28.700Z,11.70
2024-04-11T22:09:41.561Z,11.68
2024-04-11T22:13:54.000Z,11.65
2024-04-11T22:18:20.724Z,11.59
2024-04-11T22:22:30.477Z,11.53
2024-04-11T22:26:44.104Z,11.47
2024-04-11T22:31:07.183Z,11.40
2024-04-11T22:35:18.808Z,11.38
2024-04-11T22:39:37.074Z,11.37
2024-04-11T22:43:46.235Z,11.37
2024-04-11T22:47:54.697Z,11.35
2024-04-11T22:52:03.549Z,11.32
2024-04-11T22:56:22.162Z,11.32
2024-04-11T23:00:35.391Z,11.31
2024-04-11T23:04:47.522Z,11.31
2024-04-11T23:09:08.277Z,11.32
2024-04-11T23:13:20.223Z,11.32
2024-04-11T23:17:38.136Z,11.35
2024-04-11T23:21:59.860Z,11.42
2024-04-11T23:26:14.528Z,11.51
2024-04-11T23:30:29.466Z,11.57
2024-04-11T23:34:39.522Z,11.60
2024-04-11T23:38:49.149Z,11.62
2024-04-11T23:42:57.172Z,11.62
2024-04-11T23:47:05.252Z,11.62
2024-04-11T23:51:21.802Z,11.61
2024-04-11T23:55:31.602Z,11.64
2024-04-11T23:59:41.139Z,11.70
